Lockwood, North Dakota
Current Conditions -  °F | °C
As of 4:58 PM on Wednesday 26 Nov 2014 (Local Time) from KMIB Reporting Station
Clear Clear  
Wind Chill: -11°   Ceiling: Unl
Heat Index: -11°   Visibility: 10mi
Dew Point: -15°   Wind: 2mph
Humidity: 81%   Direction: 300°WNW
Pressure: 30.44"   Gusts: NA
Location:  48.6236°N, 101.367°W
Report Text: KMIB 262258Z AUTO 30002KT 10SM CLR M24/M26 A3044 RMK AO2 VIS 1/4 RWY29 SLP365 T12381262
Loading
Personal Weather Stations






























Interactive Weather Map New forecast layout! Learn more

10-Day Weather Forecast

Advertisements
Track Severe Weather on mobile